createdAt,value
2023-03-17T00:02:05.041Z,101.60
2023-03-17T00:04:33.566Z,85.30
2023-03-17T00:07:01.491Z,90.40
2023-03-17T00:09:29.260Z,84.50
2023-03-17T00:11:57.102Z,86.10
2023-03-17T00:14:24.989Z,83.90
2023-03-17T00:16:53.318Z,76.70
2023-03-17T00:19:33.127Z,73.00
2023-03-17T00:22:01.638Z,69.90
2023-03-17T00:24:31.210Z,64.90
2023-03-17T00:26:59.823Z,62.30
2023-03-17T00:29:28.107Z,58.90
2023-03-17T00:31:57.858Z,58.00
2023-03-17T00:34:25.763Z,66.20
2023-03-17T00:36:53.629Z,67.10
2023-03-17T00:39:25.662Z,68.50
2023-03-17T00:41:55.617Z,62.20
2023-03-17T00:44:24.301Z,71.00
2023-03-17T00:46:54.180Z,68.40
2023-03-17T00:49:24.852Z,69.70
2023-03-17T00:51:52.804Z,67.00
2023-03-17T00:54:23.394Z,65.30
2023-03-17T00:56:52.727Z,64.30
2023-03-17T00:59:30.117Z,65.00
2023-03-17T01:01:58.212Z,60.00
2023-03-17T01:04:26.247Z,57.90
2023-03-17T01:06:54.602Z,59.00
2023-03-17T01:09:27.071Z,62.70
2023-03-17T01:11:55.925Z,57.90
2023-03-17T01:14:25.013Z,56.00
2023-03-17T01:16:53.345Z,55.70
2023-03-17T01:19:22.159Z,60.80
2023-03-17T01:21:50.336Z,59.30
2023-03-17T01:24:18.786Z,51.80
2023-03-17T01:26:47.192Z,59.40
2023-03-17T01:29:16.613Z,60.50
2023-03-17T01:31:46.317Z,59.10
2023-03-17T01:34:14.250Z,53.00
2023-03-17T01:36:43.938Z,60.20
2023-03-17T01:39:13.003Z,58.10
2023-03-17T01:41:41.029Z,60.70
2023-03-17T01:44:17.009Z,62.60
2023-03-17T01:46:47.571Z,63.40
2023-03-17T01:49:30.440Z,64.70
2023-03-17T01:52:04.571Z,65.30
2023-03-17T01:54:50.550Z,70.00
2023-03-17T01:57:21.510Z,67.30
2023-03-17T01:59:53.121Z,64.90
2023-03-17T02:02:26.177Z,70.40
2023-03-17T02:04:54.433Z,73.60
2023-03-17T02:07:24.512Z,70.40
2023-03-17T02:09:53.699Z,65.60
2023-03-17T02:12:24.028Z,57.60
2023-03-17T02:14:52.930Z,58.90
2023-03-17T02:17:23.107Z,65.00
2023-03-17T02:19:51.988Z,61.40
2023-03-17T02:22:20.610Z,65.70
2023-03-17T02:24:53.106Z,66.40
2023-03-17T02:27:31.238Z,61.40
2023-03-17T02:29:59.907Z,56.00
2023-03-17T02:32:27.793Z,59.20
2023-03-17T02:34:56.586Z,61.20
2023-03-17T02:37:24.551Z,55.80
2023-03-17T02:39:53.901Z,53.30
2023-03-17T02:42:22.224Z,62.90
2023-03-17T02:44:50.772Z,57.00
2023-03-17T02:47:21.710Z,52.00
2023-03-17T02:49:50.223Z,54.50
2023-03-17T02:52:18.040Z,59.10
2023-03-17T02:54:45.867Z,61.70
2023-03-17T02:57:13.679Z,64.10
2023-03-17T02:59:41.743Z,65.10
2023-03-17T03:02:10.091Z,67.70
2023-03-17T03:04:38.093Z,65.10
2023-03-17T03:07:06.226Z,60.30
2023-03-17T03:09:34.462Z,63.00
2023-03-17T03:12:02.901Z,60.60
2023-03-17T03:14:32.581Z,58.40
2023-03-17T03:17:00.486Z,58.70
2023-03-17T03:19:28.467Z,51.90
2023-03-17T03:21:56.887Z,54.80
2023-03-17T03:24:24.716Z,49.80
2023-03-17T03:26:52.683Z,42.20
2023-03-17T03:29:20.757Z,47.60
2023-03-17T03:31:48.938Z,47.60
2023-03-17T03:34:16.797Z,47.00
2023-03-17T03:36:44.812Z,46.70
2023-03-17T03:39:14.517Z,45.00
2023-03-17T03:41:42.559Z,47.90
2023-03-17T03:44:10.707Z,49.90
2023-03-17T03:46:38.534Z,46.30
2023-03-17T03:49:06.489Z,52.70
2023-03-17T03:51:34.423Z,48.90
2023-03-17T03:54:02.329Z,45.00
2023-03-17T03:56:30.381Z,57.60
2023-03-17T03:58:58.195Z,56.20
2023-03-17T04:01:26.036Z,52.00
2023-03-17T04:03:53.878Z,57.60
2023-03-17T04:06:21.812Z,58.40
2023-03-17T04:08:49.883Z,53.10
2023-03-17T04:11:18.071Z,49.90
2023-03-17T04:13:45.915Z,48.80
2023-03-17T04:16:13.831Z,55.60
2023-03-17T04:18:41.738Z,47.30
2023-03-17T04:21:09.691Z,43.80
2023-03-17T04:23:38.041Z,44.60
2023-03-17T04:26:06.041Z,43.00
2023-03-17T04:28:33.888Z,41.40
2023-03-17T04:31:02.012Z,41.80
2023-03-17T04:33:29.874Z,44.00
2023-03-17T04:35:58.680Z,39.70
2023-03-17T04:38:26.863Z,42.90
2023-03-17T04:40:54.895Z,46.70
2023-03-17T04:43:22.690Z,44.30
2023-03-17T04:45:50.914Z,42.10
2023-03-17T04:48:18.724Z,45.70
2023-03-17T04:50:48.025Z,41.70
2023-03-17T04:53:15.980Z,40.50
2023-03-17T04:55:44.281Z,44.40
2023-03-17T04:58:21.091Z,42.40
2023-03-17T05:00:56.201Z,45.00
2023-03-17T05:03:27.699Z,41.20
2023-03-17T05:05:59.646Z,43.00
2023-03-17T05:08:28.609Z,44.10
2023-03-17T05:10:58.491Z,42.40
2023-03-17T05:13:27.332Z,42.90
2023-03-17T05:15:56.480Z,56.40
2023-03-17T05:18:25.734Z,47.80
2023-03-17T05:20:53.674Z,47.00
2023-03-17T05:23:23.032Z,54.50
2023-03-17T05:25:51.236Z,52.90
2023-03-17T05:28:22.599Z,52.90
2023-03-17T05:30:50.814Z,52.20
2023-03-17T05:33:19.312Z,51.80
2023-03-17T05:35:47.668Z,49.20
2023-03-17T05:38:16.147Z,50.10
2023-03-17T05:40:44.877Z,47.30
2023-03-17T05:43:14.331Z,45.60
2023-03-17T05:45:42.491Z,54.80
2023-03-17T05:48:12.485Z,52.00
2023-03-17T05:50:41.872Z,45.40
2023-03-17T05:53:10.812Z,52.70
2023-03-17T05:55:39.126Z,47.70
2023-03-17T05:58:08.016Z,51.30
2023-03-17T06:00:37.813Z,49.90
2023-03-17T06:03:06.545Z,50.10
2023-03-17T06:05:35.722Z,42.80
2023-03-17T06:08:05.829Z,45.20
2023-03-17T06:10:34.152Z,51.10
2023-03-17T06:13:03.949Z,48.30
2023-03-17T06:15:34.068Z,53.60
2023-03-17T06:18:05.377Z,48.90
2023-03-17T06:20:34.191Z,49.80
2023-03-17T06:23:05.307Z,50.40
2023-03-17T06:25:35.956Z,50.20
2023-03-17T06:28:05.741Z,47.20
2023-03-17T06:30:38.169Z,48.20
2023-03-17T06:33:08.725Z,50.60
2023-03-17T06:35:37.450Z,50.50
2023-03-17T06:38:05.511Z,45.00
2023-03-17T06:40:34.271Z,46.50
2023-03-17T06:43:03.194Z,49.30
2023-03-17T06:45:33.217Z,49.70
2023-03-17T06:48:02.486Z,48.90
2023-03-17T06:50:30.504Z,42.80
2023-03-17T06:52:58.450Z,44.30
2023-03-17T06:55:27.565Z,40.90
2023-03-17T06:57:55.717Z,46.20
2023-03-17T07:00:23.969Z,47.90
2023-03-17T07:02:52.750Z,41.30
2023-03-17T07:05:20.831Z,34.60
2023-03-17T07:07:49.725Z,39.50
2023-03-17T07:10:18.464Z,46.00
2023-03-17T07:12:46.403Z,40.00
2023-03-17T07:15:14.408Z,40.40
2023-03-17T07:17:42.738Z,42.00
2023-03-17T07:20:11.924Z,37.00
2023-03-17T07:22:41.355Z,39.00
2023-03-17T07:25:11.055Z,33.40
2023-03-17T07:27:39.101Z,29.00
2023-03-17T07:30:08.322Z,28.00
2023-03-17T07:32:36.449Z,24.00
2023-03-17T07:35:05.813Z,23.80
2023-03-17T07:37:34.054Z,22.90
2023-03-17T07:40:02.353Z,25.20
2023-03-17T07:42:30.220Z,23.70
2023-03-17T07:44:58.298Z,19.20
2023-03-17T07:47:26.245Z,19.20
2023-03-17T07:49:54.966Z,18.30
2023-03-17T07:52:22.819Z,19.30
2023-03-17T07:54:52.312Z,17.30
2023-03-17T07:57:20.260Z,16.00
2023-03-17T07:59:48.230Z,18.30
2023-03-17T08:02:17.811Z,17.30
2023-03-17T08:04:46.065Z,16.70
2023-03-17T08:07:15.690Z,16.40
2023-03-17T08:09:43.720Z,15.80
2023-03-17T08:12:11.975Z,13.40
2023-03-17T08:14:41.504Z,16.40
2023-03-17T08:17:10.640Z,10.70
2023-03-17T08:19:38.658Z,10.60
2023-03-17T08:22:06.961Z,7.90
2023-03-17T08:24:35.466Z,9.90
2023-03-17T08:27:04.214Z,9.60
2023-03-17T08:29:32.165Z,6.90
2023-03-17T08:32:00.032Z,8.20
2023-03-17T08:34:28.447Z,13.20
2023-03-17T08:36:56.802Z,6.80
2023-03-17T08:39:24.628Z,7.00
2023-03-17T08:41:53.050Z,6.60
2023-03-17T08:44:22.014Z,9.90
2023-03-17T08:46:51.479Z,11.50
2023-03-17T08:49:19.397Z,8.40
2023-03-17T08:51:47.674Z,6.90
2023-03-17T08:54:15.985Z,7.10
2023-03-17T08:56:43.831Z,8.00
2023-03-17T08:59:12.597Z,7.50
2023-03-17T09:01:40.508Z,9.70
2023-03-17T09:04:09.149Z,7.90
2023-03-17T09:06:38.812Z,9.10
2023-03-17T09:09:07.749Z,9.50
2023-03-17T09:11:35.575Z,8.70
2023-03-17T09:14:03.813Z,9.90
2023-03-17T09:16:34.322Z,8.70
2023-03-17T09:19:03.924Z,7.30
2023-03-17T09:21:32.117Z,9.50
2023-03-17T09:24:02.462Z,8.80
2023-03-17T09:26:30.695Z,8.50
2023-03-17T09:28:58.681Z,10.40
2023-03-17T09:31:26.820Z,7.80
2023-03-17T09:33:55.121Z,12.80
2023-03-17T09:36:23.706Z,8.90
2023-03-17T09:38:52.384Z,9.40
2023-03-17T09:41:30.231Z,9.10
2023-03-17T09:44:23.131Z,10.00
2023-03-17T09:47:04.940Z,6.80
2023-03-17T09:49:38.760Z,9.10
2023-03-17T09:52:13.482Z,8.70
2023-03-17T09:54:42.250Z,12.10
2023-03-17T09:57:19.299Z,8.50
2023-03-17T09:59:53.620Z,7.80
2023-03-17T10:02:24.479Z,8.80
2023-03-17T10:04:52.619Z,7.30
2023-03-17T10:07:39.085Z,8.00
2023-03-17T10:10:28.099Z,9.40
2023-03-17T10:13:07.002Z,6.20
2023-03-17T10:15:42.221Z,8.30
2023-03-17T10:18:16.727Z,9.90
2023-03-17T10:20:52.240Z,9.80
2023-03-17T10:23:36.311Z,7.00
2023-03-17T10:26:32.903Z,10.30
2023-03-17T10:29:04.386Z,10.10
2023-03-17T10:31:35.582Z,6.60
2023-03-17T10:34:17.745Z,8.90
2023-03-17T10:36:53.787Z,6.30
2023-03-17T10:39:24.776Z,8.90
2023-03-17T10:42:09.254Z,8.60
2023-03-17T10:45:01.416Z,9.20
2023-03-17T10:47:33.401Z,10.20
2023-03-17T10:50:21.112Z,10.70
2023-03-17T10:52:57.909Z,8.20
2023-03-17T10:58:15.388Z,8.60
2023-03-17T11:00:57.596Z,10.50
2023-03-17T11:03:29.422Z,8.50
2023-03-17T11:06:10.253Z,11.80
2023-03-17T11:08:51.114Z,9.80
2023-03-17T11:11:37.906Z,8.90
2023-03-17T11:14:14.276Z,9.20
2023-03-17T11:17:16.718Z,9.80
2023-03-17T11:20:11.977Z,9.20
2023-03-17T11:22:43.072Z,9.20
2023-03-17T11:25:17.456Z,9.60
2023-03-17T11:27:51.401Z,8.90
2023-03-17T11:31:09.523Z,7.50
2023-03-17T11:33:55.227Z,7.70
2023-03-17T11:36:45.355Z,9.00
2023-03-17T11:39:24.323Z,9.60
2023-03-17T11:41:58.331Z,8.60
2023-03-17T11:44:40.535Z,11.20
2023-03-17T11:47:27.085Z,9.60
2023-03-17T11:50:08.361Z,8.80
2023-03-17T11:52:48.512Z,8.90
2023-03-17T11:55:22.504Z,8.30
2023-03-17T11:58:00.194Z,8.60
2023-03-17T12:00:43.816Z,9.10
2023-03-17T12:03:22.093Z,9.40
2023-03-17T12:05:55.819Z,8.20
2023-03-17T12:08:36.086Z,7.10
2023-03-17T12:11:10.685Z,10.20
2023-03-17T12:13:45.539Z,8.70
2023-03-17T12:16:22.750Z,9.50
2023-03-17T12:19:16.617Z,8.00
2023-03-17T12:22:19.062Z,8.30
2023-03-17T12:25:16.643Z,8.40
2023-03-17T12:27:54.531Z,7.70
2023-03-17T12:30:33.233Z,9.40
2023-03-17T12:33:30.316Z,8.50
2023-03-17T12:36:00.754Z,7.00
2023-03-17T12:38:47.044Z,10.70
2023-03-17T12:44:08.211Z,7.10
2023-03-17T12:47:04.604Z,7.70
2023-03-17T12:50:20.074Z,8.80
2023-03-17T12:53:09.947Z,11.80
2023-03-17T12:55:38.816Z,10.00
2023-03-17T12:58:27.287Z,11.10
2023-03-17T13:01:32.415Z,9.10
2023-03-17T13:04:05.781Z,12.80
2023-03-17T13:06:43.036Z,8.40
2023-03-17T13:09:32.982Z,8.00
2023-03-17T13:12:02.613Z,7.00
2023-03-17T13:14:44.529Z,8.60
2023-03-17T13:17:23.971Z,12.00
2023-03-17T13:19:59.408Z,7.80
2023-03-17T13:22:37.761Z,10.10
2023-03-17T13:25:32.402Z,9.50
2023-03-17T13:28:12.804Z,9.10
2023-03-17T13:30:41.340Z,9.20
2023-03-17T13:33:12.437Z,10.50
2023-03-17T13:35:53.600Z,22.10
2023-03-17T13:39:15.070Z,8.10
2023-03-17T13:42:17.636Z,10.90
2023-03-17T13:45:08.452Z,9.10
2023-03-17T13:47:40.293Z,10.30
2023-03-17T13:50:25.484Z,9.20
2023-03-17T13:53:01.757Z,10.20
2023-03-17T13:55:35.108Z,10.00
2023-03-17T13:58:11.592Z,13.70
2023-03-17T14:00:43.788Z,13.20
2023-03-17T14:03:23.224Z,15.50
2023-03-17T14:05:52.748Z,11.50
2023-03-17T14:08:33.866Z,10.50
2023-03-17T14:11:06.786Z,10.00
2023-03-17T14:13:40.615Z,10.80
2023-03-17T14:16:21.352Z,11.10
2023-03-17T14:18:54.018Z,13.10
2023-03-17T14:21:30.507Z,13.00
2023-03-17T14:24:01.541Z,13.70
2023-03-17T14:26:32.456Z,14.60
2023-03-17T14:29:04.917Z,15.20
2023-03-17T14:31:32.802Z,13.70
2023-03-17T14:34:01.521Z,13.30
2023-03-17T14:36:34.617Z,15.10
2023-03-17T14:39:02.608Z,13.80
2023-03-17T14:41:32.226Z,15.10
2023-03-17T14:44:02.102Z,14.60
2023-03-17T14:46:41.228Z,15.10
2023-03-17T14:49:20.985Z,13.40
2023-03-17T14:51:51.768Z,10.90
2023-03-17T14:54:26.791Z,14.80
2023-03-17T14:57:02.317Z,10.60
2023-03-17T14:59:53.618Z,13.80
2023-03-17T15:02:28.065Z,12.50
2023-03-17T15:04:59.504Z,11.60
2023-03-17T15:07:37.970Z,11.90
2023-03-17T15:10:17.208Z,13.20
2023-03-17T15:12:46.862Z,12.10
2023-03-17T15:15:27.188Z,11.40
2023-03-17T15:17:59.474Z,8.50
2023-03-17T15:20:31.680Z,11.30
2023-03-17T15:23:04.246Z,12.40
2023-03-17T15:25:37.526Z,10.50
2023-03-17T15:28:16.905Z,11.30
2023-03-17T15:30:48.390Z,11.40
2023-03-17T15:33:22.561Z,12.30
2023-03-17T15:35:51.187Z,12.60
2023-03-17T15:38:19.461Z,11.50
2023-03-17T15:40:47.703Z,10.60
2023-03-17T15:43:17.056Z,15.80
2023-03-17T15:45:45.984Z,10.90
2023-03-17T15:48:25.821Z,11.00
2023-03-17T15:50:56.891Z,12.30
2023-03-17T15:53:24.888Z,11.20
2023-03-17T15:55:53.465Z,12.10
2023-03-17T15:58:21.255Z,13.00
2023-03-17T16:00:59.266Z,15.00
2023-03-17T16:03:33.409Z,12.30
2023-03-17T16:06:04.376Z,11.80
2023-03-17T16:08:32.173Z,13.30
2023-03-17T16:11:00.310Z,12.10
2023-03-17T16:13:28.118Z,12.30
2023-03-17T16:15:59.111Z,10.30
2023-03-17T16:18:34.255Z,11.50
2023-03-17T16:21:04.093Z,11.60
2023-03-17T16:23:36.973Z,12.50
2023-03-17T16:26:14.815Z,11.90
2023-03-17T16:28:47.790Z,13.90
2023-03-17T16:31:25.653Z,11.20
2023-03-17T16:33:54.531Z,13.00
2023-03-17T16:36:24.452Z,11.50
2023-03-17T16:38:52.876Z,15.20
2023-03-17T16:41:24.661Z,15.80
2023-03-17T16:43:58.934Z,16.20
2023-03-17T16:46:34.051Z,17.00
2023-03-17T16:49:04.211Z,15.30
2023-03-17T16:51:32.027Z,19.30
2023-03-17T16:53:59.843Z,21.60
2023-03-17T16:56:28.182Z,19.30
2023-03-17T16:58:56.163Z,21.20
2023-03-17T17:01:27.116Z,26.40
2023-03-17T17:03:56.064Z,21.70
2023-03-17T17:06:24.581Z,19.80
2023-03-17T17:08:52.394Z,22.50
2023-03-17T17:11:20.866Z,19.50
2023-03-17T17:13:49.472Z,18.10
2023-03-17T17:16:30.727Z,24.70
2023-03-17T17:18:59.955Z,21.60
2023-03-17T17:21:28.464Z,21.60
2023-03-17T17:23:57.136Z,24.60
2023-03-17T17:26:24.930Z,25.00
2023-03-17T17:28:53.156Z,23.30
2023-03-17T17:31:21.155Z,28.40
2023-03-17T17:33:49.119Z,28.30
2023-03-17T17:36:17.913Z,21.40
2023-03-17T17:38:46.464Z,25.00
2023-03-17T17:41:14.365Z,25.50
2023-03-17T17:43:42.365Z,23.40
2023-03-17T17:46:12.715Z,25.40
2023-03-17T17:48:41.211Z,23.40
2023-03-17T17:51:09.255Z,26.00
2023-03-17T17:53:37.177Z,29.60
2023-03-17T17:56:05.219Z,27.20
2023-03-17T17:58:33.329Z,27.20
2023-03-17T18:01:01.909Z,23.40
2023-03-17T18:03:32.053Z,21.90
2023-03-17T18:06:01.021Z,24.30
2023-03-17T18:08:29.155Z,35.80
2023-03-17T18:10:57.429Z,32.90
2023-03-17T18:13:25.816Z,26.50
2023-03-17T18:15:53.717Z,26.40
2023-03-17T18:18:21.746Z,24.20
2023-03-17T18:20:49.797Z,22.80
2023-03-17T18:23:17.829Z,21.90
2023-03-17T18:25:45.839Z,21.20
2023-03-17T18:28:13.765Z,23.00
2023-03-17T18:30:43.427Z,20.90
2023-03-17T18:33:16.523Z,23.90
2023-03-17T18:35:47.385Z,24.70
2023-03-17T18:38:15.535Z,22.60
2023-03-17T18:40:44.132Z,24.70
2023-03-17T18:43:12.031Z,21.40
2023-03-17T18:45:39.993Z,20.00
2023-03-17T18:48:07.947Z,16.90
2023-03-17T18:50:37.173Z,17.70
2023-03-17T18:53:05.165Z,20.50
2023-03-17T18:55:33.162Z,18.30
2023-03-17T18:58:01.116Z,22.80
2023-03-17T19:00:29.181Z,21.40
2023-03-17T19:02:57.251Z,24.30
2023-03-17T19:05:25.740Z,22.60
2023-03-17T19:07:53.618Z,21.70
2023-03-17T19:10:21.986Z,21.20
2023-03-17T19:12:50.768Z,24.00
2023-03-17T19:15:19.680Z,25.70
2023-03-17T19:17:47.833Z,25.70
2023-03-17T19:20:15.665Z,25.90
2023-03-17T19:22:43.490Z,22.70
2023-03-17T19:25:11.591Z,23.10
2023-03-17T19:27:40.381Z,23.00
2023-03-17T19:30:09.414Z,19.60
2023-03-17T19:32:37.352Z,20.90
2023-03-17T19:35:07.608Z,26.20
2023-03-17T19:37:36.595Z,26.80
2023-03-17T19:40:08.182Z,30.20
2023-03-17T19:42:36.683Z,30.90
2023-03-17T19:45:05.431Z,37.50
2023-03-17T19:47:33.658Z,35.80
2023-03-17T19:50:01.888Z,39.40
2023-03-17T19:52:29.842Z,38.90
2023-03-17T19:54:58.014Z,32.40
2023-03-17T19:57:27.180Z,29.20
2023-03-17T19:59:55.181Z,25.00
2023-03-17T20:02:23.047Z,25.90
2023-03-17T20:04:51.552Z,21.70
2023-03-17T20:07:19.527Z,22.50
2023-03-17T20:09:48.765Z,21.40
2023-03-17T20:12:17.152Z,28.40
2023-03-17T20:14:45.043Z,24.40
2023-03-17T20:17:14.643Z,25.80
2023-03-17T20:19:42.408Z,21.60
2023-03-17T20:22:11.037Z,20.90
2023-03-17T20:24:38.865Z,19.30
2023-03-17T20:27:08.071Z,23.90
2023-03-17T20:29:36.584Z,20.40
2023-03-17T20:32:04.819Z,21.10
2023-03-17T20:34:35.010Z,20.90
2023-03-17T20:37:02.912Z,25.60
2023-03-17T20:39:32.524Z,26.30
2023-03-17T20:42:01.764Z,25.40
2023-03-17T20:44:30.417Z,25.20
2023-03-17T20:46:58.309Z,23.40
2023-03-17T20:49:26.760Z,25.20
2023-03-17T20:51:54.590Z,22.30
2023-03-17T20:54:23.389Z,25.70
2023-03-17T20:56:56.802Z,22.50
2023-03-17T20:59:24.860Z,24.90
2023-03-17T21:01:53.027Z,23.80
2023-03-17T21:04:21.405Z,23.40
2023-03-17T21:06:49.791Z,23.50
2023-03-17T21:09:17.909Z,21.10
2023-03-17T21:11:46.033Z,24.60
2023-03-17T21:14:13.867Z,21.60
2023-03-17T21:16:42.900Z,20.70
2023-03-17T21:19:14.582Z,22.10
2023-03-17T21:21:43.195Z,22.10
2023-03-17T21:24:24.388Z,22.00
2023-03-17T21:26:52.311Z,22.20
2023-03-17T21:29:21.480Z,24.50
2023-03-17T21:31:49.755Z,24.60
2023-03-17T21:34:18.029Z,27.10
2023-03-17T21:36:46.142Z,21.00
2023-03-17T21:39:14.097Z,20.60
2023-03-17T21:41:41.994Z,23.00
2023-03-17T21:44:12.060Z,24.30
2023-03-17T21:46:39.894Z,19.00
2023-03-17T21:49:08.181Z,17.80
2023-03-17T21:51:36.284Z,21.90
2023-03-17T21:54:05.577Z,23.00
2023-03-17T21:56:33.669Z,21.10
2023-03-17T21:59:01.486Z,21.90
2023-03-17T22:01:29.700Z,22.30
2023-03-17T22:03:57.952Z,26.10
2023-03-17T22:06:27.575Z,23.50
2023-03-17T22:08:55.965Z,23.60
2023-03-17T22:11:24.100Z,20.10
2023-03-17T22:13:52.341Z,26.50
2023-03-17T22:16:21.652Z,22.80
2023-03-17T22:18:49.516Z,21.50
2023-03-17T22:21:18.140Z,18.50
2023-03-17T22:23:46.417Z,20.60
2023-03-17T22:26:17.141Z,17.80
2023-03-17T22:28:47.286Z,18.60
2023-03-17T22:31:23.756Z,17.80
2023-03-17T22:33:55.046Z,21.50
2023-03-17T22:36:24.920Z,19.60
2023-03-17T22:38:53.442Z,20.30
2023-03-17T22:41:23.943Z,21.50
2023-03-17T22:43:52.008Z,16.60
2023-03-17T22:46:20.865Z,19.10
2023-03-17T22:48:49.821Z,17.00
2023-03-17T22:51:21.442Z,18.60
2023-03-17T22:53:50.394Z,19.80
2023-03-17T22:56:19.248Z,16.90
2023-03-17T22:58:47.910Z,16.80
2023-03-17T23:01:17.399Z,17.40
2023-03-17T23:03:45.668Z,20.00
2023-03-17T23:06:14.665Z,16.70
2023-03-17T23:08:44.102Z,13.50
2023-03-17T23:11:19.196Z,18.90
2023-03-17T23:13:48.085Z,14.10
2023-03-17T23:16:17.355Z,16.50
2023-03-17T23:18:46.757Z,14.90
2023-03-17T23:21:21.943Z,16.90
2023-03-17T23:23:49.791Z,14.70
2023-03-17T23:26:17.752Z,15.50
2023-03-17T23:28:46.642Z,15.60
2023-03-17T23:31:16.774Z,13.80
2023-03-17T23:33:46.911Z,15.70
2023-03-17T23:36:17.097Z,15.50
2023-03-17T23:38:45.680Z,12.60
2023-03-17T23:41:15.277Z,14.20
2023-03-17T23:43:44.182Z,14.10
2023-03-17T23:46:13.983Z,12.70
2023-03-17T23:48:42.993Z,12.90
2023-03-17T23:51:12.711Z,13.00
2023-03-17T23:53:41.865Z,12.20
2023-03-17T23:56:11.596Z,14.00
2023-03-17T23:58:42.540Z,13.70
